createdAt,value
2024-02-26T00:02:19.407Z,3.05
2024-02-26T00:07:41.637Z,2.15
2024-02-26T00:12:44.762Z,3.00
2024-02-26T00:17:48.052Z,2.45
2024-02-26T00:22:51.160Z,2.78
2024-02-26T00:27:54.180Z,3.63
2024-02-26T00:32:57.207Z,1.83
2024-02-26T00:38:01.126Z,2.08
2024-02-26T00:43:04.174Z,2.97
2024-02-26T00:48:08.852Z,1.92
2024-02-26T00:53:12.176Z,3.13
2024-02-26T00:58:15.609Z,1.73
2024-02-26T01:03:19.128Z,1.08
2024-02-26T01:08:22.265Z,1.88
2024-02-26T01:13:25.226Z,1.35
2024-02-26T01:18:28.623Z,2.80
2024-02-26T01:23:31.743Z,2.40
2024-02-26T01:28:34.771Z,1.92
2024-02-26T01:33:38.367Z,3.05
2024-02-26T01:38:41.499Z,2.70
2024-02-26T01:43:44.667Z,3.30
2024-02-26T01:48:49.493Z,3.20
2024-02-26T01:53:53.295Z,2.15
2024-02-26T01:58:56.828Z,3.65
2024-02-26T02:04:01.321Z,2.45
2024-02-26T02:09:08.010Z,2.83
2024-02-26T02:14:11.249Z,2.25
2024-02-26T02:19:15.047Z,3.35
2024-02-26T02:24:18.311Z,3.33
2024-02-26T02:29:21.806Z,2.67
2024-02-26T02:34:25.423Z,3.20
2024-02-26T02:39:28.710Z,2.17
2024-02-26T02:44:31.777Z,3.83
2024-02-26T02:49:35.253Z,2.67
2024-02-26T02:54:41.800Z,1.17
2024-02-26T02:59:45.383Z,2.97
2024-02-26T03:04:48.515Z,2.38
2024-02-26T03:09:51.656Z,2.42
2024-02-26T03:14:55.597Z,2.95
2024-02-26T03:19:58.586Z,2.90
2024-02-26T03:25:01.764Z,3.20
2024-02-26T03:30:07.772Z,2.40
2024-02-26T03:35:10.958Z,2.72
2024-02-26T03:40:16.022Z,2.47
2024-02-26T03:45:19.090Z,2.08
2024-02-26T03:50:22.179Z,2.92
2024-02-26T03:55:26.739Z,2.70
2024-02-26T04:00:31.806Z,2.72
2024-02-26T04:05:34.965Z,1.75
2024-02-26T04:10:40.455Z,2.60
2024-02-26T04:15:43.539Z,2.08
2024-02-26T04:20:46.433Z,2.85
2024-02-26T04:25:49.852Z,2.92
2024-02-26T04:30:52.956Z,3.03
2024-02-26T04:35:56.128Z,2.95
2024-02-26T04:40:59.063Z,2.78
2024-02-26T04:46:02.169Z,2.65
2024-02-26T04:51:05.846Z,3.60
2024-02-26T04:56:08.916Z,2.03
2024-02-26T05:01:12.843Z,3.63
2024-02-26T05:06:16.753Z,2.25
2024-02-26T05:11:20.008Z,2.72
2024-02-26T05:16:26.054Z,2.50
2024-02-26T05:21:29.076Z,2.38
2024-02-26T05:26:32.152Z,2.70
2024-02-26T05:31:35.419Z,2.95
2024-02-26T05:36:38.658Z,2.03
2024-02-26T05:41:43.617Z,3.60
2024-02-26T05:46:46.820Z,2.20
2024-02-26T05:51:49.938Z,3.38
2024-02-26T05:56:53.308Z,2.88
2024-02-26T06:01:56.982Z,4.75
2024-02-26T06:07:00.154Z,3.47
2024-02-26T06:12:03.640Z,3.35
2024-02-26T06:17:06.775Z,4.75
2024-02-26T06:22:09.904Z,3.88
2024-02-26T06:27:13.866Z,3.35
2024-02-26T06:32:17.200Z,4.53
2024-02-26T06:37:20.282Z,4.18
2024-02-26T06:42:23.458Z,4.85
2024-02-26T06:47:27.495Z,5.15
2024-02-26T06:52:30.557Z,4.95
2024-02-26T06:57:33.685Z,4.25
2024-02-26T07:02:39.994Z,4.18
2024-02-26T07:07:43.665Z,3.72
2024-02-26T07:12:46.722Z,3.85
2024-02-26T07:17:50.816Z,3.28
2024-02-26T07:22:53.954Z,4.25
2024-02-26T07:27:57.215Z,4.43
2024-02-26T07:33:00.299Z,3.60
2024-02-26T07:38:03.426Z,3.60
2024-02-26T07:43:06.686Z,4.95
2024-02-26T07:48:10.071Z,2.97
2024-02-26T07:53:13.414Z,4.78
2024-02-26T07:58:16.454Z,5.47
2024-02-26T08:03:20.018Z,4.03
2024-02-26T08:08:23.190Z,4.43
2024-02-26T08:13:26.214Z,5.53
2024-02-26T08:18:29.292Z,5.93
2024-02-26T08:23:33.035Z,5.50
2024-02-26T08:28:35.971Z,5.43
2024-02-26T08:33:39.295Z,5.05
2024-02-26T08:38:42.449Z,4.35
2024-02-26T08:43:45.513Z,5.68
2024-02-26T08:48:48.964Z,5.72
2024-02-26T08:53:52.599Z,6.13
2024-02-26T08:58:58.079Z,5.60
2024-02-26T09:04:01.605Z,5.93
2024-02-26T09:09:05.195Z,5.88
2024-02-26T09:14:08.457Z,5.22
2024-02-26T09:19:11.545Z,5.68
2024-02-26T09:24:14.729Z,6.00
2024-02-26T09:29:19.046Z,5.60
2024-02-26T09:34:22.089Z,3.78
2024-02-26T09:39:25.277Z,5.40
2024-02-26T09:44:31.921Z,5.63
2024-02-26T09:49:36.741Z,5.15
2024-02-26T09:54:40.047Z,5.03
2024-02-26T09:59:44.019Z,5.22
2024-02-26T10:04:51.689Z,4.78
2024-02-26T10:09:55.592Z,4.53
2024-02-26T10:14:58.878Z,4.22
2024-02-26T10:20:18.113Z,3.97
2024-02-26T10:25:21.383Z,3.03
2024-02-26T10:30:24.770Z,3.08
2024-02-26T10:35:30.128Z,3.10
2024-02-26T10:40:33.525Z,2.92
2024-02-26T10:45:38.719Z,2.78
2024-02-26T10:50:42.856Z,2.60
2024-02-26T10:55:51.085Z,2.83
2024-02-26T11:00:55.258Z,3.58
2024-02-26T11:06:01.025Z,3.15
2024-02-26T11:11:04.954Z,3.45
2024-02-26T11:16:09.338Z,2.75
2024-02-26T11:21:16.752Z,4.45
2024-02-26T11:26:21.866Z,3.45
2024-02-26T11:31:28.898Z,4.13
2024-02-26T11:36:32.106Z,4.00
2024-02-26T11:41:35.543Z,4.40
2024-02-26T11:46:43.882Z,4.05
2024-02-26T11:51:53.396Z,4.53
2024-02-26T11:56:59.417Z,4.32
2024-02-26T12:02:03.349Z,4.28
2024-02-26T12:07:07.321Z,3.88
2024-02-26T12:12:12.584Z,3.65
2024-02-26T12:17:21.653Z,4.03
2024-02-26T12:22:26.590Z,4.63
2024-02-26T12:27:29.844Z,4.47
2024-02-26T12:32:33.297Z,5.45
2024-02-26T12:37:41.152Z,5.63
2024-02-26T12:42:45.789Z,3.67
2024-02-26T12:47:51.136Z,4.88
2024-02-26T12:52:54.780Z,5.15
2024-02-26T12:57:58.178Z,4.75
2024-02-26T13:03:02.001Z,4.63
2024-02-26T13:08:08.979Z,3.58
2024-02-26T13:13:12.849Z,3.97
2024-02-26T13:18:16.850Z,3.38
2024-02-26T13:23:21.446Z,3.40
2024-02-26T13:28:28.524Z,2.72
2024-02-26T13:33:32.611Z,3.58
2024-02-26T13:38:35.872Z,3.60
2024-02-26T13:43:38.928Z,4.18
2024-02-26T13:48:43.009Z,3.72
2024-02-26T13:53:46.308Z,3.63
2024-02-26T13:58:49.833Z,3.13
2024-02-26T14:03:56.654Z,2.85
2024-02-26T14:09:00.609Z,2.55
2024-02-26T14:14:03.815Z,3.00
2024-02-26T14:19:06.908Z,2.72
2024-02-26T14:24:10.073Z,2.65
2024-02-26T14:29:13.109Z,2.58
2024-02-26T14:34:18.954Z,3.42
2024-02-26T14:39:22.248Z,3.35
2024-02-26T14:44:26.087Z,3.53
2024-02-26T14:49:31.224Z,2.63
2024-02-26T14:54:38.743Z,3.65
2024-02-26T14:59:42.021Z,2.58
2024-02-26T15:04:46.237Z,3.30
2024-02-26T15:09:50.051Z,3.13
2024-02-26T15:14:53.182Z,3.10
2024-02-26T15:19:58.434Z,2.38
2024-02-26T15:25:01.909Z,2.53
2024-02-26T15:30:06.534Z,3.08
2024-02-26T15:35:10.742Z,3.63
2024-02-26T15:40:13.993Z,2.65
2024-02-26T15:45:17.738Z,2.75
2024-02-26T15:50:21.036Z,2.10
2024-02-26T15:55:44.197Z,2.35
2024-02-26T16:01:12.413Z,2.75
2024-02-26T16:06:43.944Z,2.67
2024-02-26T16:11:48.436Z,3.45
2024-02-26T16:17:05.642Z,3.45
2024-02-26T16:22:08.765Z,4.07
2024-02-26T16:27:11.997Z,3.47
2024-02-26T16:32:33.716Z,3.45
2024-02-26T16:37:38.146Z,2.92
2024-02-26T16:42:41.580Z,2.40
2024-02-26T16:47:45.492Z,3.28
2024-02-26T16:52:50.995Z,1.85
2024-02-26T16:57:58.134Z,3.15
2024-02-26T17:03:03.602Z,3.17
2024-02-26T17:13:10.818Z,3.13
2024-02-26T17:18:14.664Z,3.30
2024-02-26T17:23:18.369Z,3.47
2024-02-26T17:28:21.709Z,2.95
2024-02-26T17:33:25.170Z,3.25
2024-02-26T17:38:28.440Z,3.10
2024-02-26T17:43:31.573Z,3.30
2024-02-26T17:48:36.124Z,3.22
2024-02-26T17:53:40.342Z,1.90
2024-02-26T17:58:43.771Z,3.60
2024-02-26T18:03:47.011Z,3.78
2024-02-26T18:08:50.320Z,2.65
2024-02-26T18:13:53.797Z,2.15
2024-02-26T18:18:57.185Z,2.45
2024-02-26T18:24:00.678Z,2.33
2024-02-26T18:29:04.056Z,2.60
2024-02-26T18:34:07.315Z,2.42
2024-02-26T18:39:10.929Z,3.13
2024-02-26T18:44:16.130Z,3.53
2024-02-26T18:49:19.675Z,2.35
2024-02-26T18:54:22.948Z,3.40
2024-02-26T18:59:26.074Z,2.90
2024-02-26T19:04:30.479Z,3.00
2024-02-26T19:09:33.968Z,3.13
2024-02-26T19:14:37.519Z,3.10
2024-02-26T19:19:40.804Z,2.65
2024-02-26T19:24:43.965Z,2.92
2024-02-26T19:29:47.014Z,2.60
2024-02-26T19:34:50.120Z,2.35
2024-02-26T19:39:59.259Z,1.85
2024-02-26T19:45:21.061Z,2.70
2024-02-26T19:50:24.205Z,2.88
2024-02-26T19:55:29.146Z,2.50
2024-02-26T20:00:33.185Z,2.20
2024-02-26T20:05:37.728Z,1.30
2024-02-26T20:10:41.330Z,2.33
2024-02-26T20:15:45.053Z,3.45
2024-02-26T20:20:48.183Z,2.83
2024-02-26T20:25:51.911Z,2.28
2024-02-26T20:30:55.003Z,2.95
2024-02-26T20:35:58.223Z,2.25
2024-02-26T20:41:01.492Z,3.13
2024-02-26T20:46:06.329Z,3.20
2024-02-26T20:51:10.192Z,2.78
2024-02-26T20:56:14.385Z,2.47
2024-02-26T21:01:17.743Z,2.67
2024-02-26T21:06:21.153Z,2.47
2024-02-26T21:11:24.326Z,3.30
2024-02-26T21:16:27.733Z,3.33
2024-02-26T21:21:34.771Z,3.28
2024-02-26T21:26:38.170Z,3.10
2024-02-26T21:31:59.999Z,2.17
2024-02-26T21:37:03.113Z,3.05
2024-02-26T21:42:07.164Z,3.38
2024-02-26T21:47:11.451Z,2.92
2024-02-26T21:52:16.930Z,1.65
2024-02-26T21:57:20.087Z,2.30
2024-02-26T22:02:23.310Z,3.38
2024-02-26T22:07:28.061Z,4.20
2024-02-26T22:12:31.696Z,3.08
2024-02-26T22:17:36.623Z,3.50
2024-02-26T22:22:40.730Z,3.38
2024-02-26T22:27:43.832Z,2.75
2024-02-26T22:32:47.107Z,2.67
2024-02-26T22:37:50.317Z,1.38
2024-02-26T22:42:57.178Z,2.63
2024-02-26T22:48:01.014Z,3.20
2024-02-26T22:53:04.712Z,1.73
2024-02-26T22:58:07.822Z,2.40
2024-02-26T23:03:11.628Z,2.08
2024-02-26T23:08:16.862Z,2.63
2024-02-26T23:13:21.757Z,2.15
2024-02-26T23:18:25.283Z,1.92
2024-02-26T23:23:28.641Z,2.53
2024-02-26T23:28:33.029Z,2.28
2024-02-26T23:33:36.369Z,1.83
2024-02-26T23:38:39.565Z,1.63
2024-02-26T23:43:42.808Z,2.72
2024-02-26T23:48:46.838Z,1.75
2024-02-26T23:53:50.031Z,2.00
2024-02-26T23:58:53.782Z,1.20
